TimeMDT,TemperatureF,Dew PointF,Humidity,Sea Level PressureIn,VisibilityMPH,Wind Direction,Wind SpeedMPH,Gust SpeedMPH,PrecipitationIn,Events,Conditions,WindDirDegrees,DateUTC
12:53 AM,42.1,34.0,73,30.22,10.0,North,5.8,-,N/A,,Clear,350,2013-10-26 06:53:00
1:53 AM,41.0,33.1,73,30.22,10.0,Calm,Calm,-,N/A,,Clear,0,2013-10-26 07:53:00
2:53 AM,41.0,34.0,76,30.22,10.0,North,12.7,-,N/A,,Clear,360,2013-10-26 08:53:00
3:53 AM,36.0,32.0,86,30.23,10.0,WNW,6.9,-,N/A,,Clear,290,2013-10-26 09:53:00
4:53 AM,37.9,33.1,83,30.25,10.0,Calm,Calm,-,N/A,,Clear,0,2013-10-26 10:53:00
5:53 AM,37.9,33.1,83,30.28,10.0,Calm,Calm,-,N/A,,Clear,0,2013-10-26 11:53:00
6:53 AM,32.0,30.0,92,30.31,10.0,NW,3.5,-,N/A,,Clear,320,2013-10-26 12:53:00
7:53 AM,33.1,30.0,89,30.32,10.0,Calm,Calm,-,N/A,,Clear,0,2013-10-26 13:53:00
8:53 AM,37.9,34.0,86,30.32,10.0,Calm,Calm,-,N/A,,Clear,0,2013-10-26 14:53:00
9:53 AM,45.0,35.1,68,30.30,10.0,Calm,Calm,-,N/A,,Clear,0,2013-10-26 15:53:00
10:53 AM,51.1,37.0,59,30.28,10.0,Calm,Calm,-,N/A,,Clear,0,2013-10-26 16:53:00
11:53 AM,55.9,36.0,47,30.26,10.0,West,3.5,-,N/A,,Clear,280,2013-10-26 17:53:00
12:53 PM,60.1,34.0,38,30.22,10.0,West,5.8,-,N/A,,Clear,260,2013-10-26 18:53:00
1:53 PM,63.0,30.9,30,30.18,10.0,SW,6.9,-,N/A,,Clear,220,2013-10-26 19:53:00
2:53 PM,64.9,32.0,29,30.15,10.0,South,8.1,-,N/A,,Clear,170,2013-10-26 20:53:00
3:53 PM,64.9,30.9,28,30.14,10.0,South,5.8,-,N/A,,Clear,180,2013-10-26 21:53:00
4:53 PM,64.0,30.9,29,30.12,10.0,South,5.8,-,N/A,,Clear,170,2013-10-26 22:53:00
5:53 PM,57.0,33.1,40,30.12,10.0,ESE,4.6,-,N/A,,Clear,120,2013-10-26 23:53:00
6:53 PM,54.0,33.1,45,30.13,10.0,SE,4.6,-,N/A,,Clear,140,2013-10-27 00:53:00
7:53 PM,46.9,32.0,56,30.14,10.0,ESE,4.6,-,N/A,,Clear,120,2013-10-27 01:53:00
8:53 PM,43.0,32.0,65,30.11,10.0,ESE,5.8,-,N/A,,Clear,110,2013-10-27 02:53:00
9:53 PM,45.0,34.0,65,30.08,10.0,Calm,Calm,-,N/A,,Clear,0,2013-10-27 03:53:00
10:53 PM,41.0,33.1,73,30.06,10.0,Calm,Calm,-,N/A,,Clear,0,2013-10-27 04:53:00
11:53 PM,39.0,33.1,79,30.03,10.0,Calm,Calm,-,N/A,,Clear,0,2013-10-27 05:53:00